Time;durP1;ratioP1;P1;durP2;ratioP2;P2;SDS_P1;SDS_P2;PMS_P1;PMS_P2;Temp;Humidity;BMP_temperature;BMP_pressure;BME280_temperature;BME280_humidity;BME280_pressure;Samples;Min_cycle;Max_cycle;Signal;HPM_P1;HPM_P2
2023/02/25 00:01:49;;;;;;;;;48.33;35.33;;;;;8.20;100.00;97937.47;6286367;20;3620038;-59
2023/02/25 00:04:31;;;;;;;;;35.33;30.67;;;;;8.24;100.00;97933.56;6284248;20;2860797;-59
2023/02/25 00:07:01;;;;;;;;;37.67;35.00;;;;;8.27;100.00;97933.34;6315614;20;3616986;-59
2023/02/25 00:09:31;;;;;;;;;36.33;31.00;;;;;8.08;100.00;97928.56;6315781;20;3613810;-59
2023/02/25 00:12:00;;;;;;;;;35.67;29.33;;;;;8.19;100.00;97925.91;6316949;20;3612762;-59
2023/02/25 00:14:29;;;;;;;;;43.00;29.00;;;;;8.04;100.00;97924.47;6280773;20;3626307;-59
2023/02/25 00:17:00;;;;;;;;;38.33;31.67;;;;;8.11;100.00;97917.66;6312351;20;3600361;-59
2023/02/25 00:19:29;;;;;;;;;40.33;35.67;;;;;8.11;100.00;97923.00;6317042;20;3598213;-59
2023/02/25 00:21:59;;;;;;;;;16.33;16.33;;;;;8.17;100.00;97921.66;6282544;20;3573268;-59
2023/02/25 00:24:28;;;;;;;;;34.67;29.67;;;;;8.09;100.00;97919.59;6284348;20;3603386;-59
2023/02/25 00:26:57;;;;;;;;;36.33;33.00;;;;;8.08;100.00;97913.41;6317313;20;3607582;-59
2023/02/25 00:29:26;;;;;;;;;36.50;27.50;;;;;8.05;100.00;97918.13;6283972;20;2861934;-59
2023/02/25 00:31:55;;;;;;;;;41.33;33.00;;;;;8.05;100.00;97908.28;6286442;20;3625321;-59
2023/02/25 00:34:25;;;;;;;;;38.67;33.67;;;;;7.98;100.00;97901.75;6282077;20;2859868;-59
2023/02/25 00:36:53;;;;;;;;;41.67;34.00;;;;;7.95;100.00;97904.66;6318186;20;3628424;-59
2023/02/25 00:39:23;;;;;;;;;43.00;35.00;;;;;7.85;100.00;97896.53;6281252;20;3605546;-59
2023/02/25 00:41:52;;;;;;;;;46.67;35.33;;;;;7.87;100.00;97904.41;6319235;20;3614849;-59
2023/02/25 00:44:22;;;;;;;;;36.67;33.33;;;;;7.92;100.00;97894.22;6282172;20;3612871;-59
2023/02/25 00:46:51;;;;;;;;;45.00;36.67;;;;;7.88;100.00;97887.44;6311797;20;3618047;-59
2023/02/25 00:49:25;;;;;;;;;37.00;35.00;;;;;7.83;100.00;97892.28;6313632;20;3606500;-59
2023/02/25 00:52:00;;;;;;;;;38.00;31.00;;;;;7.95;100.00;97877.09;6319280;20;3615966;-59
2023/02/25 00:54:29;;;;;;;;;43.33;35.00;;;;;8.01;100.00;97871.28;6281476;20;3615866;-59
2023/02/25 00:56:59;;;;;;;;;37.00;31.33;;;;;7.97;100.00;97864.47;6315153;20;3613841;-58
2023/02/25 00:59:29;;;;;;;;;33.00;33.00;;;;;7.89;100.00;97859.72;6313535;20;2852445;-59
2023/02/25 01:01:58;;;;;;;;;40.67;34.00;;;;;7.86;100.00;97855.47;6315947;20;3620029;-59
2023/02/25 01:04:26;;;;;;;;;36.67;33.33;;;;;7.73;100.00;97853.91;6285792;20;3602344;-59
2023/02/25 01:06:56;;;;;;;;;37.67;31.33;;;;;7.81;100.00;97846.97;6313063;20;2852504;-59
2023/02/25 01:09:25;;;;;;;;;39.00;35.33;;;;;7.90;100.00;97834.72;6312766;20;3623171;-59
2023/02/25 01:11:54;;;;;;;;;37.00;33.67;;;;;7.62;100.00;97831.56;6280714;20;2857654;-59
2023/02/25 01:14:25;;;;;;;;;34.00;29.33;;;;;7.63;100.00;97822.56;6313062;20;3593229;-59
2023/02/25 01:16:56;;;;;;;;;41.67;35.00;;;;;7.55;100.00;97814.31;6284908;20;2865022;-59
2023/02/25 01:19:26;;;;;;;;;29.67;29.67;;;;;7.56;100.00;97810.69;6310634;20;2855486;-59
2023/02/25 01:21:57;;;;;;;;;34.33;29.67;;;;;7.58;100.00;97808.75;6312337;20;3593011;-59
2023/02/25 01:24:31;;;;;;;;;38.00;34.67;;;;;7.47;100.00;97808.75;6277728;20;3619019;-58
2023/02/25 01:27:02;;;;;;;;;30.33;27.00;;;;;7.52;100.00;97803.88;6313639;20;3600246;-59
2023/02/25 01:29:38;;;;;;;;;44.33;37.00;;;;;7.42;100.00;97800.25;6281667;20;2854538;-58
2023/02/25 01:32:12;;;;;;;;;48.00;35.00;;;;;7.38;100.00;97785.47;6316311;20;3639907;-59
2023/02/25 01:34:41;;;;;;;;;43.00;35.33;;;;;7.52;100.00;97787.88;6283816;20;3618996;-59
2023/02/25 01:37:11;;;;;;;;;41.67;35.00;;;;;7.56;100.00;97780.47;6282172;20;3616932;-59
2023/02/25 01:39:40;;;;;;;;;36.33;31.67;;;;;7.53;100.00;97781.56;6312289;20;2856529;-59
2023/02/25 01:42:17;;;;;;;;;46.67;37.00;;;;;7.55;100.00;97774.25;6315379;20;3616988;-58
2023/02/25 01:45:17;;;;;;;;;36.00;32.33;;;;;7.53;100.00;97772.69;6283106;20;3595155;-59
2023/02/25 01:48:14;;;;;;;;;46.67;35.00;;;;;7.63;100.00;97768.31;6280229;20;3631588;-59
2023/02/25 01:51:02;;;;;;;;;38.67;34.00;;;;;7.45;100.00;97762.63;6308621;20;3599284;-59
2023/02/25 01:53:45;;;;;;;;;40.00;34.50;;;;;7.31;100.00;97760.22;6277610;20;2857651;-59
2023/02/25 01:56:19;;;;;;;;;44.00;35.67;;;;;7.33;100.00;97744.94;6279711;20;3612821;-59
2023/02/25 01:58:49;;;;;;;;;26.50;23.50;;;;;7.36;100.00;97755.34;6312386;20;2842984;-59
2023/02/25 02:01:25;;;;;;;;;42.00;33.00;;;;;7.34;100.00;97746.63;6277139;20;3628394;-59
2023/02/25 02:03:55;;;;;;;;;45.33;36.00;;;;;7.34;100.00;97751.94;6309826;20;2868112;-59
2023/02/25 02:06:38;;;;;;;;;45.67;35.33;;;;;7.18;100.00;97747.81;6313736;20;3598206;-59
2023/02/25 02:09:13;;;;;;;;;25.00;17.67;;;;;7.31;100.00;97733.50;6277643;20;3553499;-59
2023/02/25 02:11:42;;;;;;;;;37.67;32.67;;;;;7.23;100.00;97732.28;6311700;20;3604634;-59
2023/02/25 02:14:22;;;;;;;;;42.50;37.00;;;;;7.42;100.00;97738.84;6281574;20;2857579;-59
2023/02/25 02:17:31;;;;;;;;;35.00;33.67;;;;;7.35;100.00;97733.16;6278874;20;2857088;-59
2023/02/25 02:20:21;;;;;;;;;40.00;37.00;;;;;7.28;100.00;97731.94;6315394;20;3628529;-58
2023/02/25 02:24:01;;;;;;;;;36.00;33.00;;;;;7.29;100.00;97722.09;6310340;20;2862902;-59
2023/02/25 02:26:59;;;;;;;;;35.00;29.50;;;;;7.17;100.00;97722.13;6305016;20;2867024;-59
2023/02/25 02:29:56;;;;;;;;;39.00;33.67;;;;;7.18;100.00;97710.47;6306755;20;3610843;-59
2023/02/25 02:33:12;;;;;;;;;36.00;31.33;;;;;7.15;100.00;97716.03;6313510;20;3612814;-59
2023/02/25 02:36:18;;;;;;;;;43.00;36.00;;;;;7.17;100.00;97703.44;6313495;20;3586704;-59
2023/02/25 02:39:03;;;;;;;;;32.00;32.00;;;;;7.09;100.00;97705.88;6276396;20;2852498;-59
2023/02/25 02:41:38;;;;;;;;;38.67;28.00;;;;;7.06;100.00;97706.13;6276442;20;3615233;-59
2023/02/25 02:44:40;;;;;;;;;37.33;32.33;;;;;7.10;100.00;97696.03;6316923;20;3623225;-59
2023/02/25 02:47:33;;;;;;;;;35.00;34.33;;;;;7.16;100.00;97693.75;6284014;20;3605570;-59
2023/02/25 02:50:33;;;;;;;;;37.67;31.33;;;;;7.29;100.00;97688.25;6318008;20;3611728;-59
2023/02/25 02:53:32;;;;;;;;;39.33;26.67;;;;;7.40;100.00;97684.75;6287066;20;3606876;-59
2023/02/25 02:56:06;;;;;;;;;32.00;26.00;;;;;7.36;100.00;97677.94;6313934;20;2851429;-59
2023/02/25 02:58:47;;;;;;;;;36.67;32.00;;;;;7.38;100.00;97678.66;6313402;20;2869249;-59
2023/02/25 03:01:28;;;;;;;;;29.67;24.33;;;;;7.41;100.00;97686.44;6312227;20;2848295;-59
2023/02/25 03:04:14;;;;;;;;;42.33;33.33;;;;;7.41;100.00;97681.94;6316676;20;3630604;-59
2023/02/25 03:06:51;;;;;;;;;44.00;35.33;;;;;7.41;100.00;97684.59;6315255;20;3623293;-59
2023/02/25 03:09:42;;;;;;;;;37.67;35.33;;;;;7.40;100.00;97680.25;6321744;20;3619021;-59
2023/02/25 03:12:11;;;;;;;;;32.00;25.00;;;;;7.49;100.00;97681.31;6281847;20;2858666;-58
2023/02/25 03:14:41;;;;;;;;;35.67;30.67;;;;;7.56;100.00;97685.19;6283171;20;2858722;-59
2023/02/25 03:17:30;;;;;;;;;36.67;29.33;;;;;7.54;100.00;97691.63;6320294;20;3595111;-59
2023/02/25 03:20:33;;;;;;;;;34.67;30.33;;;;;7.65;100.00;97680.91;6280378;20;2855466;-59
2023/02/25 03:23:13;;;;;;;;;38.33;34.33;;;;;7.47;100.00;97691.25;6315087;20;3614885;-59
2023/02/25 03:25:51;;;;;;;;;38.67;32.67;;;;;7.45;100.00;97698.53;6317018;20;3609648;-59
2023/02/25 03:28:32;;;;;;;;;37.67;34.33;;;;;7.47;100.00;97686.75;6283270;20;3620077;-59
2023/02/25 03:31:32;;;;;;;;;32.67;26.00;;;;;7.58;100.00;97687.72;6314268;20;3586138;-59
2023/02/25 03:34:17;;;;;;;;;44.00;31.67;;;;;7.67;100.00;97700.34;6314700;20;3617974;-59
2023/02/25 03:36:56;;;;;;;;;37.33;32.00;;;;;7.77;100.00;97692.44;6280961;20;3621310;-59
2023/02/25 03:39:35;;;;;;;;;29.50;26.50;;;;;7.73;100.00;97697.16;6282519;20;2846163;-59
2023/02/25 03:42:11;;;;;;;;;29.00;26.00;;;;;7.93;99.52;97689.34;6281976;20;2843160;-59
2023/02/25 03:44:49;;;;;;;;;37.00;30.00;;;;;7.80;99.65;97687.66;6283077;20;3608635;-59
2023/02/25 03:47:22;;;;;;;;;30.67;26.00;;;;;7.91;100.00;97681.44;6315660;20;3587867;-59
2023/02/25 03:50:36;;;;;;;;;36.33;29.33;;;;;7.80;99.26;97678.81;6279944;20;3604529;-59
2023/02/25 03:53:06;;;;;;;;;36.00;31.00;;;;;7.80;99.22;97678.81;6311066;20;3600457;-59
2023/02/25 03:55:35;;;;;;;;;34.33;30.33;;;;;7.84;99.38;97672.22;6309606;20;3608781;-59
2023/02/25 03:58:08;;;;;;;;;36.33;33.67;;;;;7.80;99.37;97673.47;6309670;20;3617984;-59
2023/02/25 04:00:40;;;;;;;;;43.67;36.33;;;;;7.76;99.83;97688.03;6313251;20;2866127;-59
2023/02/25 04:03:11;;;;;;;;;56.00;40.00;;;;;7.78;99.83;97681.59;6312790;20;2863908;-59
2023/02/25 04:05:40;;;;;;;;;38.33;35.00;;;;;7.79;99.46;97687.78;6313217;20;2864922;-59
2023/02/25 04:08:18;;;;;;;;;38.67;32.67;;;;;7.75;99.22;97686.34;6316325;20;3612809;-59
2023/02/25 04:10:47;;;;;;;;;48.33;39.33;;;;;7.86;98.87;97683.63;6317797;20;3621121;-59
2023/02/25 04:13:19;;;;;;;;;35.33;30.33;;;;;7.80;98.80;97684.16;6283195;20;2858709;-60
2023/02/25 04:15:49;;;;;;;;;37.00;30.00;;;;;7.80;99.06;97684.16;6314720;20;3595069;-59
2023/02/25 04:18:19;;;;;;;;;34.00;27.67;;;;;7.91;98.46;97692.13;6280038;20;2859667;-60
2023/02/25 04:20:48;;;;;;;;;35.33;27.67;;;;;7.91;98.02;97690.28;6312954;20;3598283;-59
2023/02/25 04:23:17;;;;;;;;;21.00;18.00;;;;;7.87;97.78;97674.63;6315727;20;2829475;-60
2023/02/25 04:25:46;;;;;;;;;31.67;29.33;;;;;7.88;97.76;97673.69;6283108;20;2849335;-59
2023/02/25 04:28:16;;;;;;;;;34.67;29.33;;;;;7.86;97.76;97663.09;6311869;20;3612836;-59
2023/02/25 04:30:44;;;;;;;;;37.00;29.00;;;;;7.98;97.12;97671.94;6317119;20;3603422;-59
2023/02/25 04:33:13;;;;;;;;;28.50;24.50;;;;;8.07;96.69;97679.19;6283436;20;2848296;-59
2023/02/25 04:35:43;;;;;;;;;35.67;30.33;;;;;8.18;96.34;97677.44;6282898;20;2849366;-59
2023/02/25 04:38:12;;;;;;;;;42.33;29.67;;;;;8.34;95.59;97677.81;6311902;20;3610669;-59
2023/02/25 04:40:41;;;;;;;;;26.33;26.33;;;;;8.20;96.00;97686.16;6314513;20;3581518;-59
2023/02/25 04:43:10;;;;;;;;;26.00;23.50;;;;;8.20;96.05;97681.66;6281529;20;2846123;-59
2023/02/25 04:45:38;;;;;;;;;28.00;27.00;;;;;8.28;95.94;97673.00;6280250;20;2843992;-59
2023/02/25 04:48:08;;;;;;;;;36.33;27.33;;;;;8.50;95.17;97678.25;6282783;20;2871424;-59
2023/02/25 04:50:37;;;;;;;;;34.67;26.67;;;;;8.48;94.68;97674.88;6314093;20;2865073;-59
2023/02/25 04:53:06;;;;;;;;;28.33;25.00;;;;;8.48;94.14;97685.56;6314571;20;3583632;-60
2023/02/25 04:55:35;;;;;;;;;26.00;25.00;;;;;8.50;94.58;97686.25;6279132;20;2836729;-59
2023/02/25 04:58:04;;;;;;;;;29.50;25.00;;;;;8.69;93.92;97692.72;6283506;20;2853923;-59
2023/02/25 05:00:34;;;;;;;;;48.50;34.00;;;;;8.69;93.38;97698.94;6282248;20;3632545;-59
2023/02/25 05:03:03;;;;;;;;;42.25;32.50;;;;;8.77;92.85;97690.25;6317426;20;3642056;-59
2023/02/25 05:05:32;;;;;;;;;36.67;33.00;;;;;8.61;93.12;97689.84;6315526;20;3608658;-59
2023/02/25 05:08:03;;;;;;;;;37.67;33.67;;;;;8.62;93.30;97707.63;6282943;20;3604519;-59
2023/02/25 05:10:32;;;;;;;;;32.00;28.00;;;;;8.58;93.22;97712.34;6312258;20;2853391;-59
2023/02/25 05:13:01;;;;;;;;;28.50;24.50;;;;;8.59;93.43;97718.59;6312232;20;2839855;-59
2023/02/25 05:15:29;;;;;;;;;28.50;25.50;;;;;8.35;94.48;97716.97;6282427;20;2844032;-59
2023/02/25 05:17:59;;;;;;;;;42.00;31.67;;;;;8.23;94.96;97718.00;6280134;20;3628473;-59
2023/02/25 05:20:28;;;;;;;;;32.67;29.67;;;;;8.21;95.79;97715.44;6316767;20;3573218;-59
2023/02/25 05:22:57;;;;;;;;;34.33;31.33;;;;;8.31;95.17;97726.22;6281406;20;2840049;-60
2023/02/25 05:25:26;;;;;;;;;37.67;33.00;;;;;8.19;95.64;97729.91;6316383;20;3613927;-60
2023/02/25 05:27:56;;;;;;;;;36.33;34.00;;;;;8.30;95.30;97729.88;6283980;20;3621121;-60
2023/02/25 05:30:24;;;;;;;;;33.00;29.67;;;;;8.24;95.36;97733.91;6314242;20;3588824;-60
2023/02/25 05:32:54;;;;;;;;;32.50;24.50;;;;;8.21;95.55;97733.31;6282907;20;2860814;-60
2023/02/25 05:35:24;;;;;;;;;44.33;34.33;;;;;8.37;95.78;97741.72;6281122;20;3614832;-60
2023/02/25 05:37:53;;;;;;;;;40.00;34.50;;;;;8.28;95.51;97745.19;6311452;20;2852419;-60
2023/02/25 05:40:23;;;;;;;;;42.33;37.67;;;;;8.25;95.47;97740.09;6279659;20;2859684;-60
2023/02/25 05:42:52;;;;;;;;;48.00;37.00;;;;;8.30;95.16;97757.47;6313447;20;2839853;-60
2023/02/25 05:45:20;;;;;;;;;43.00;37.67;;;;;8.40;94.81;97752.22;6284267;20;3588823;-59
2023/02/25 05:47:50;;;;;;;;;40.67;33.67;;;;;8.49;94.63;97772.84;6280086;20;3625280;-60
2023/02/25 05:50:18;;;;;;;;;36.50;34.00;;;;;8.45;94.42;97771.41;6312682;20;2827440;-60
2023/02/25 05:52:47;;;;;;;;;49.00;39.50;;;;;8.41;94.59;97777.13;6279069;20;2858754;-60
2023/02/25 05:55:16;;;;;;;;;48.67;37.00;;;;;8.39;94.79;97781.72;6283760;20;3622141;-60
2023/02/25 05:57:46;;;;;;;;;51.33;37.33;;;;;8.40;94.80;97797.69;6279539;20;3621078;-60
2023/02/25 06:00:20;;;;;;;;;51.33;37.67;;;;;8.36;94.84;97794.38;6312883;20;2872279;-59
2023/02/25 06:02:49;;;;;;;;;43.67;34.00;;;;;8.39;94.74;97795.09;6313721;20;3634686;-59
2023/02/25 06:05:18;;;;;;;;;38.00;34.67;;;;;8.41;94.40;97796.69;6316833;20;3608618;-60
2023/02/25 06:07:47;;;;;;;;;30.50;26.50;;;;;8.22;94.79;97807.19;6282363;20;2854476;-59
2023/02/25 06:10:17;;;;;;;;;33.67;27.00;;;;;8.47;94.49;97806.88;6281427;20;2856631;-60
2023/02/25 06:12:46;;;;;;;;;25.00;19.00;;;;;8.51;93.09;97813.69;6313291;20;2837792;-59
2023/02/25 06:15:15;;;;;;;;;27.50;23.00;;;;;8.49;93.24;97793.38;6282615;20;2844074;-59
2023/02/25 06:17:44;;;;;;;;;22.33;19.00;;;;;8.30;93.62;97794.03;6283195;20;3564838;-60
2023/02/25 06:20:15;;;;;;;;;16.50;12.50;;;;;8.32;93.86;97802.75;6318525;20;2800290;-59
2023/02/25 06:22:44;;;;;;;;;24.67;20.33;;;;;8.39;94.54;97793.28;6288690;20;3555572;-60
2023/02/25 06:25:12;;;;;;;;;20.00;17.00;;;;;8.39;94.90;97809.34;6285951;20;3541942;-59
2023/02/25 06:27:42;;;;;;;;;28.00;26.67;;;;;8.22;95.93;97820.56;6282303;20;2854469;-60
2023/02/25 06:30:10;;;;;;;;;21.00;16.50;;;;;8.26;97.19;97819.31;6315839;20;2492012;-60
2023/02/25 06:32:38;;;;;;;;;19.00;16.00;;;;;8.18;98.29;97833.31;6288322;20;2816991;-60
2023/02/25 06:35:07;;;;;;;;;18.00;15.00;;;;;8.00;100.00;97827.63;6287869;20;2806993;-59
2023/02/25 06:37:37;;;;;;;;;21.33;17.33;;;;;8.01;100.00;97832.03;6283061;20;3560744;-60
2023/02/25 06:40:06;;;;;;;;;20.67;15.67;;;;;8.06;100.00;97840.53;6285964;20;3546087;-59
2023/02/25 06:42:34;;;;;;;;;8.00;8.00;;;;;7.97;99.25;97830.56;6285947;20;2745251;-59
2023/02/25 06:45:05;;;;;;;;;13.20;10.20;;;;;7.84;99.58;97841.38;6342327;20;2791982;-56
2023/02/25 06:47:33;;;;;;;;;16.00;11.67;;;;;7.69;98.81;97851.47;6287370;20;3516935;-58
2023/02/25 06:50:02;;;;;;;;;3.50;1.75;;;;;7.63;98.31;97859.13;6338817;20;1806587;-58
2023/02/25 06:52:31;;;;;;;;;10.00;10.00;;;;;7.66;98.55;97865.09;6315249;20;2788844;-59
2023/02/25 06:54:59;;;;;;;;;15.50;13.50;;;;;7.50;99.58;97864.56;6319552;20;2798231;-58
2023/02/25 06:57:27;;;;;;;;;4.00;2.50;;;;;7.24;99.12;97863.94;6301831;20;1819024;-58
2023/02/25 06:59:56;;;;;;;;;7.25;5.00;;;;;7.13;99.82;97866.59;6335182;20;1818297;-57
2023/02/25 07:02:27;;;;;;;;;9.33;8.17;;;;;6.99;100.00;97863.16;6359040;20;1804496;-59
2023/02/25 07:04:55;;;;;;;;;3.50;3.50;;;;;7.13;100.00;97863.91;6307633;20;1839969;-59
2023/02/25 07:07:23;;;;;;;;;5.00;5.00;;;;;7.18;100.00;97875.94;6320904;20;2748210;-59
2023/02/25 07:09:51;;;;;;;;;3.00;3.00;;;;;6.94;100.00;97881.31;6290492;20;2719463;-58
2023/02/25 07:12:19;;;;;;;;;2.00;2.00;;;;;7.00;100.00;97883.56;6319345;20;2752376;-59
2023/02/25 07:14:48;;;;;;;;;6.75;3.00;;;;;6.92;100.00;97877.06;6304258;20;1813940;-59
2023/02/25 07:17:15;;;;;;;;;9.00;7.00;;;;;6.91;100.00;97883.38;6310152;20;2745162;-58
2023/02/25 07:19:43;;;;;;;;;10.50;9.00;;;;;6.64;100.00;97892.50;6287673;20;2763836;-59
2023/02/25 07:22:18;;;;;;;;;6.00;5.00;;;;;6.65;100.00;97886.19;6286036;20;2752390;-58
2023/02/25 07:24:45;;;;;;;;;6.00;5.00;;;;;6.95;100.00;97906.19;6286126;20;2741958;-57
2023/02/25 07:27:13;;;;;;;;;10.50;7.00;;;;;6.81;100.00;97913.41;6284459;20;2764982;-58
2023/02/25 07:29:43;;;;;;;;;10.00;7.80;;;;;7.01;100.00;97919.09;6313183;20;2752806;-58
2023/02/25 07:32:11;;;;;;;;;4.50;4.50;;;;;7.01;100.00;97916.41;6319619;20;2752362;-58
2023/02/25 07:34:39;;;;;;;;;9.50;8.00;;;;;6.93;100.00;97918.81;6287638;20;2732629;-58
2023/02/25 07:37:06;;;;;;;;;9.50;7.50;;;;;6.91;100.00;97918.06;6283695;20;2756578;-59
2023/02/25 07:39:38;;;;;;;;;9.29;8.29;;;;;6.85;100.00;97906.03;6328032;20;1808693;-59
2023/02/25 07:42:07;;;;;;;;;11.80;10.00;;;;;6.98;100.00;97911.31;6342830;20;2774313;-59
2023/02/25 07:44:35;;;;;;;;;11.50;11.00;;;;;7.03;100.00;97901.16;6284398;20;2793399;-59
2023/02/25 07:47:03;;;;;;;;;9.50;8.00;;;;;6.82;100.00;97900.94;6286313;20;2749520;-59
2023/02/25 07:49:32;;;;;;;;;7.50;5.50;;;;;6.79;100.00;97891.34;6301453;20;1818078;-58
2023/02/25 07:52:00;;;;;;;;;6.00;3.00;;;;;6.74;98.82;97896.19;6320945;20;2740997;-59
2023/02/25 07:54:27;;;;;;;;;3.00;3.00;;;;;6.87;97.21;97892.56;6317571;20;2756599;-59
2023/02/25 07:56:56;;;;;;;;;5.00;5.00;;;;;6.96;94.89;97900.75;6282478;20;2756624;-58
2023/02/25 07:59:24;;;;;;;;;2.50;1.25;;;;;6.88;92.20;97900.47;6305836;20;1803310;-59
2023/02/25 08:01:53;;;;;;;;;1.25;1.25;;;;;6.91;90.70;97892.22;6336802;20;1805624;-58
2023/02/25 08:04:21;;;;;;;;;8.00;8.00;;;;;7.04;90.03;97895.66;6317310;20;2740914;-58
2023/02/25 08:06:50;;;;;;;;;6.00;4.50;;;;;6.91;89.39;97899.41;6287153;20;2755276;-59
2023/02/25 08:09:18;;;;;;;;;4.00;4.00;;;;;7.41;89.03;97908.03;6286194;20;2747181;-59
2023/02/25 08:11:45;;;;;;;;;2.00;2.00;;;;;7.21;88.22;97920.22;6286984;20;2747164;-57
2023/02/25 08:14:13;;;;;;;;;9.00;9.00;;;;;7.33;89.54;97924.63;6288002;20;2742165;-59
2023/02/25 08:16:42;;;;;;;;;23.00;22.00;;;;;7.24;90.24;97911.97;6280796;20;2829564;-59
2023/02/25 08:19:09;;;;;;;;;11.50;11.50;;;;;7.56;89.12;97930.88;6284762;20;2790005;-58
2023/02/25 08:21:39;;;;;;;;;11.00;10.50;;;;;7.84;89.62;97921.53;6283211;20;2783665;-59
2023/02/25 08:24:08;;;;;;;;;7.00;7.00;;;;;7.71;89.60;97928.81;6303683;20;1820953;-58
2023/02/25 08:26:35;;;;;;;;;9.00;7.00;;;;;7.77;88.17;97936.38;6317304;20;2748408;-58
2023/02/25 08:29:05;;;;;;;;;11.50;10.00;;;;;7.64;88.16;97931.13;6293051;20;2771361;-59
2023/02/25 08:31:34;;;;;;;;;12.50;9.00;;;;;7.77;86.22;97935.53;6281183;20;2760724;-58
2023/02/25 08:34:02;;;;;;;;;12.00;5.00;;;;;7.90;83.68;97933.59;6287626;20;2765910;-59
2023/02/25 08:36:31;;;;;;;;;3.25;3.25;;;;;7.93;81.68;97948.53;6299508;20;1813672;-59
2023/02/25 08:39:00;;;;;;;;;6.50;3.00;;;;;7.51;82.72;97950.91;6330310;20;1810799;-58
2023/02/25 08:41:29;;;;;;;;;9.00;7.00;;;;;7.61;83.40;97944.72;6313162;20;2750357;-59
2023/02/25 08:44:00;;;;;;;;;2.50;2.50;;;;;7.48;81.38;97941.31;6301404;20;1815136;-59
2023/02/25 08:46:31;;;;;;;;;2.00;2.00;;;;;7.50;82.71;97935.81;6334429;20;1814461;-59
2023/02/25 08:49:00;;;;;;;;;8.00;8.00;;;;;7.28;82.83;97937.47;6317789;20;2748233;-60
2023/02/25 08:51:37;;;;;;;;;7.00;7.00;;;;;7.11;83.63;97959.25;6281062;20;2747295;-58
2023/02/25 08:54:11;;;;;;;;;28.50;26.00;;;;;7.32;84.48;97956.78;6277696;20;2839860;-57
2023/02/25 08:56:43;;;;;;;;;8.00;7.50;;;;;6.91;84.52;97958.94;6285319;20;2734080;-57
2023/02/25 08:59:14;;;;;;;;;15.00;12.00;;;;;7.10;85.40;97971.75;6314299;20;2806723;-56
2023/02/25 09:01:43;;;;;;;;;17.33;15.67;;;;;6.85;85.53;97974.56;6284046;20;3543091;-55
2023/02/25 09:04:21;;;;;;;;;16.33;12.00;;;;;6.93;86.35;97981.03;6315213;20;3527409;-57
2023/02/25 09:06:52;;;;;;;;;7.00;7.00;;;;;6.77;85.95;97973.28;6316322;20;2741985;-57
2023/02/25 09:09:21;;;;;;;;;10.00;9.00;;;;;6.85;85.42;97961.22;6312882;20;2751333;-56
2023/02/25 09:11:53;;;;;;;;;6.50;6.50;;;;;6.78;84.89;97958.13;6324650;20;1807701;-56
2023/02/25 09:14:21;;;;;;;;;10.00;9.00;;;;;7.10;84.09;97979.75;6285484;20;2758624;-55
2023/02/25 09:16:49;;;;;;;;;8.50;8.50;;;;;6.97;83.68;97974.47;6284893;20;2733661;-56
2023/02/25 09:19:19;;;;;;;;;9.00;7.75;;;;;7.13;83.34;97976.00;6301354;20;1805626;-54
2023/02/25 09:21:47;;;;;;;;;4.00;3.50;;;;;6.95;82.10;97962.22;6313108;20;2747287;-56
2023/02/25 09:24:17;;;;;;;;;7.50;5.00;;;;;7.10;82.71;97969.06;6333165;20;1818078;-57
2023/02/25 09:26:48;;;;;;;;;25.00;24.00;;;;;7.04;82.61;97970.38;6309759;20;2848235;-54
2023/02/25 09:29:16;;;;;;;;;26.50;23.50;;;;;6.98;82.46;97980.69;6278952;20;2500390;-57
2023/02/25 09:31:44;;;;;;;;;16.50;15.00;;;;;7.11;81.30;97965.47;6278611;20;2500309;-55
2023/02/25 09:34:14;;;;;;;;;12.00;10.00;;;;;7.32;81.22;97972.78;6282710;20;2787776;-52
2023/02/25 09:36:42;;;;;;;;;10.00;8.00;;;;;7.22;80.30;97983.31;6282587;20;2763819;-55
2023/02/25 09:39:12;;;;;;;;;19.00;14.33;;;;;7.44;80.91;98003.91;6279430;20;3554467;-58
2023/02/25 09:41:48;;;;;;;;;14.00;10.00;;;;;7.44;79.98;97994.06;6281539;20;2789933;-58
2023/02/25 09:44:50;;;;;;;;;10.00;8.00;;;;;7.41;79.86;97998.81;6278921;20;2751335;-60
2023/02/25 09:47:43;;;;;;;;;9.00;8.00;;;;;7.36;79.87;97998.28;6280136;20;2753441;-59
2023/02/25 09:50:41;;;;;;;;;11.00;11.00;;;;;7.39;77.39;98000.72;6279085;20;2781591;-56
2023/02/25 09:53:26;;;;;;;;;5.25;5.00;;;;;7.61;77.63;97991.91;6304869;20;1814988;-57
2023/02/25 09:55:55;;;;;;;;;13.33;11.33;;;;;7.37;75.58;97963.50;6311154;20;3513826;-56
2023/02/25 09:58:36;;;;;;;;;6.00;5.00;;;;;7.57;75.31;97969.94;6320002;20;2750348;-58
2023/02/25 10:01:10;;;;;;;;;13.00;10.50;;;;;7.50;74.66;97971.38;6282583;20;2778407;-58
2023/02/25 10:03:54;;;;;;;;;6.60;6.60;;;;;7.67;74.78;97968.28;6312049;20;2748226;-57
2023/02/25 10:06:46;;;;;;;;;8.00;8.00;;;;;7.96;73.60;97985.69;6317633;20;2748194;-57
2023/02/25 10:09:25;;;;;;;;;8.00;8.00;;;;;7.74;73.68;97995.38;6286540;20;2737774;-57
2023/02/25 10:12:34;;;;;;;;;9.00;7.00;;;;;7.93;73.91;98000.16;6285970;20;2754577;-57
2023/02/25 10:15:30;;;;;;;;;4.25;4.25;;;;;7.78;73.78;97985.31;6305283;20;1819103;-58
2023/02/25 10:18:25;;;;;;;;;6.00;5.00;;;;;8.00;73.71;97966.59;6313082;20;2745105;-57
2023/02/25 10:21:15;;;;;;;;;5.50;4.00;;;;;8.36;72.34;97965.50;6284904;20;2754447;-57
2023/02/25 10:24:43;;;;;;;;;9.00;7.00;;;;;8.82;71.30;97955.63;6287478;20;2738850;-57
2023/02/25 10:27:59;;;;;;;;;7.00;5.00;;;;;8.98;70.15;97952.53;6283912;20;2744228;-57
2023/02/25 10:30:58;;;;;;;;;9.00;9.00;;;;;8.57;71.29;97957.59;6283901;20;2741038;-55
2023/02/25 10:33:32;;;;;;;;;7.00;4.00;;;;;8.04;71.35;97965.41;6285888;20;2748210;-56
2023/02/25 10:36:15;;;;;;;;;10.00;8.50;;;;;8.37;72.88;97979.72;6284453;20;2764871;-57
2023/02/25 10:38:50;;;;;;;;;7.50;6.00;;;;;8.51;72.46;97994.72;6286482;20;2748196;-58
2023/02/25 10:41:29;;;;;;;;;7.40;6.40;;;;;8.86;71.73;97997.19;6324289;20;2504572;-57
2023/02/25 10:43:58;;;;;;;;;7.60;7.60;;;;;8.26;70.77;97995.78;6341329;20;2746147;-56
2023/02/25 10:46:41;;;;;;;;;9.00;7.50;;;;;8.32;72.12;97989.94;6317874;20;2743127;-58
2023/02/25 10:49:25;;;;;;;;;7.00;7.00;;;;;8.22;70.46;97979.13;6284168;20;2732638;-57
2023/02/25 10:52:16;;;;;;;;;9.25;7.75;;;;;7.99;70.92;97983.63;6301828;20;1818564;-58
2023/02/25 10:54:50;;;;;;;;;10.60;9.40;;;;;8.21;71.24;97984.59;6343829;20;2770097;-57
2023/02/25 10:57:39;;;;;;;;;11.00;10.00;;;;;8.20;69.90;97990.94;6281175;20;2782962;-57
2023/02/25 11:00:35;;;;;;;;;3.75;3.00;;;;;8.19;69.53;98000.78;6298397;20;1823328;-54
2023/02/25 11:03:04;;;;;;;;;3.75;3.75;;;;;8.30;69.58;98003.44;6333257;20;1794160;-57
2023/02/25 11:05:35;;;;;;;;;10.00;8.50;;;;;8.51;68.25;98006.25;6314650;20;2756625;-58
2023/02/25 11:08:25;;;;;;;;;8.00;7.00;;;;;8.37;68.10;97998.44;6285468;20;2749334;-58
2023/02/25 11:11:24;;;;;;;;;5.00;5.00;;;;;8.58;67.34;98001.25;6286238;20;2481618;-59
2023/02/25 11:14:04;;;;;;;;;9.00;7.50;;;;;8.49;68.60;98002.84;6312707;20;2743139;-58
2023/02/25 11:16:38;;;;;;;;;11.00;10.00;;;;;8.19;67.95;98003.44;6311320;20;2794109;-58
2023/02/25 11:19:30;;;;;;;;;14.80;10.20;;;;;8.42;68.62;98015.00;6303373;20;2793132;-58
2023/02/25 11:22:15;;;;;;;;;11.67;11.67;;;;;8.74;65.90;98017.78;6283621;20;3520367;-57
2023/02/25 11:24:45;;;;;;;;;10.00;6.50;;;;;8.30;67.58;98024.84;6314938;20;2764883;-58
2023/02/25 11:27:34;;;;;;;;;11.50;11.00;;;;;9.05;66.33;98003.72;6283169;20;2790907;-57
2023/02/25 11:30:24;;;;;;;;;11.00;11.00;;;;;9.44;65.22;98000.41;6281884;20;2814960;-57
2023/02/25 11:32:56;;;;;;;;;11.00;11.00;;;;;8.95;64.65;97987.56;6310929;20;2782601;-57
2023/02/25 11:35:36;;;;;;;;;11.00;11.00;;;;;9.61;64.00;97982.03;6289076;20;2785780;-57
2023/02/25 11:38:37;;;;;;;;;13.00;13.00;;;;;9.64;62.63;97958.53;6283978;20;3544149;-55
2023/02/25 11:41:21;;;;;;;;;18.50;13.00;;;;;10.31;61.52;97962.56;6315002;20;2821139;-56
2023/02/25 11:43:50;;;;;;;;;12.50;11.00;;;;;9.92;60.85;97974.06;6279862;20;2788976;-57
2023/02/25 11:46:29;;;;;;;;;12.00;9.00;;;;;10.41;58.38;97977.84;6282198;20;2767994;-56